Aérodrome :
LOGIN :

S'inscrire | Disclaimer

   EN    FR    IT 

 










Légende :    VFR   VFR Marginal   IFR   IFR Intensif   IFR Très Intensif
Visi : 
Plafond : 
>= 8 km
>= 3000ft
5 à 8 km
1000 à 3000 ft
1500m à 5 km
500 à 1000 ft
800 à 1500m
200 à 500 ft
< 800m
< 200 ft
Symboles :   Orages  Brouillard  Fortes neiges  Fortes précipitations  Vent > 20 kt
SIGMETs :   Divers  Orages  Givrage  Turbulence  Onde Orograph.  Cendres Volcan.






- Altitude de l'aérodrome : -11 ft
- Code IATA : AMS


EHAM - Amsterdam Schiphol

DERNIER METAR :
  • 261455Z 17012KT 9999 SCT025 BKN031 08/06 Q1012 NOSIG

METARs EXPIRÉS :
  • 261425Z 17011KT 9999 SCT031 08/06 Q1012 NOSIG
  • 261355Z 17010KT 9999 FEW012 08/06 Q1012 NOSIG
  • 261325Z 17011KT 9999 BKN022 08/05 Q1013 NOSIG
  • 261255Z 17009KT 140V200 9999 FEW008 08/05 Q1013 NOSIG
  • 261225Z 18008KT 140V210 9000 FEW008 07/05 Q1013 TEMPO BKN009
  • 261155Z 20011KT 7000 FEW007 BKN008 07/05 Q1014 BECMG CAVOK

TAF TAF EHAM
Valide du 26 à 12h jusqu'au 27 à 18h UTC


261116Z 2612/2718 19012KT 9999 SCT020
TEMPO 2612/2618 BKN009
BECMG 2622/2701 7000 -RA BKN012
TEMPO 2700/2704 4000 RADZ BKN007
BECMG 2702/2705 22012KT 9999 NSW SCT012
PROB40
TEMPO 2704/2712 4000 -RA -SHRA BKN008 FEW018TCU
PROB30
TEMPO 2712/2718 6000 SHRA RA BKN012 FEW018CB



MET'MAP, la Météo Aéronautique d'un coup d'oeil ! - Copyright ORBIFLY Décembre 2007 - Disclaimer

ORBIFLY MET'MAP TEAM :

Programmation & Développement : Alexandra Zaïnal
Sur une idée originale de : Baudouin d'Aumeries
Assistance à la programmation : Marc-Olivier Méhu
Soutien technique & logistique : Manuel Goepfert

Contact : metmap@orbifly.com




SOURCES & CREDITS :

   NOAA